createdAt,value
2022-08-28T00:00:14.147Z,100039.06
2022-08-28T00:02:43.808Z,100040.59
2022-08-28T00:05:12.442Z,100044.22
2022-08-28T00:07:43.232Z,100045.91
2022-08-28T00:10:16.876Z,100039.97
2022-08-28T00:12:44.913Z,100047.25
2022-08-28T00:15:14.871Z,100046.72
2022-08-28T00:17:43.859Z,100044.66
2022-08-28T00:20:13.648Z,100049.97
2022-08-28T00:22:42.099Z,100051.50
2022-08-28T00:25:13.660Z,100052.31
2022-08-28T00:27:52.458Z,100047.50
2022-08-28T00:30:21.519Z,100052.25
2022-08-28T00:32:50.620Z,100056.00
2022-08-28T00:35:18.718Z,100059.50
2022-08-28T00:37:48.233Z,100054.69
2022-08-28T00:40:18.577Z,100055.03
2022-08-28T00:42:57.308Z,100053.91
2022-08-28T00:45:26.595Z,100055.63
2022-08-28T00:47:55.522Z,100052.69
2022-08-28T00:50:26.652Z,100054.88
2022-08-28T00:52:59.800Z,100054.16
2022-08-28T00:55:29.155Z,100051.78
2022-08-28T00:58:00.339Z,100051.91
2022-08-28T01:00:32.025Z,100051.34
2022-08-28T01:03:01.582Z,100049.75
2022-08-28T01:05:30.006Z,100050.09
2022-08-28T01:07:59.608Z,100049.84
2022-08-28T01:10:29.986Z,100050.81
2022-08-28T01:12:58.946Z,100058.47
2022-08-28T01:15:29.802Z,100047.00
2022-08-28T01:18:07.910Z,100058.03
2022-08-28T01:20:40.671Z,100056.56
2022-08-28T01:23:13.932Z,100054.22
2022-08-28T01:25:43.472Z,100055.53
2022-08-28T01:28:14.213Z,100048.19
2022-08-28T01:30:44.399Z,100058.28
2022-08-28T01:33:14.402Z,100056.31
2022-08-28T01:35:44.802Z,100062.09
2022-08-28T01:38:12.903Z,100059.75
2022-08-28T01:40:54.480Z,100068.47
2022-08-28T01:43:23.505Z,100067.88
2022-08-28T01:45:53.748Z,100071.91
2022-08-28T01:48:23.453Z,100076.44
2022-08-28T01:50:52.298Z,100072.28
2022-08-28T01:53:24.819Z,100071.78
2022-08-28T01:55:56.149Z,100072.44
2022-08-28T01:58:25.260Z,100071.56
2022-08-28T02:00:55.853Z,100078.28
2022-08-28T02:03:24.486Z,100080.75
2022-08-28T02:05:52.997Z,100089.34
2022-08-28T02:08:21.302Z,100082.75
2022-08-28T02:10:50.026Z,100081.13
2022-08-28T02:13:19.018Z,100083.34
2022-08-28T02:15:47.499Z,100073.91
2022-08-28T02:18:15.536Z,100084.09
2022-08-28T02:20:43.201Z,100083.81
2022-08-28T02:23:11.109Z,100078.56
2022-08-28T02:25:39.406Z,100090.47
2022-08-28T02:28:06.968Z,100092.66
2022-08-28T02:30:36.496Z,100091.78
2022-08-28T02:33:04.504Z,100099.25
2022-08-28T02:35:32.198Z,100094.88
2022-08-28T02:38:01.056Z,100095.34
2022-08-28T02:40:29.605Z,100093.56
2022-08-28T02:42:57.241Z,100094.41
2022-08-28T02:45:24.835Z,100098.16
2022-08-28T02:47:56.725Z,100103.94
2022-08-28T02:50:25.173Z,100099.00
2022-08-28T02:52:54.346Z,100102.69
2022-08-28T02:55:22.636Z,100107.22
2022-08-28T02:57:50.604Z,100110.78
2022-08-28T03:00:22.131Z,100106.19
2022-08-28T03:02:50.526Z,100112.00
2022-08-28T03:05:22.328Z,100107.56
2022-08-28T03:07:52.554Z,100110.53
2022-08-28T03:10:21.709Z,100106.56
2022-08-28T03:12:49.438Z,100109.34
2022-08-28T03:15:17.977Z,100108.84
2022-08-28T03:17:46.187Z,100104.16
2022-08-28T03:20:17.219Z,100102.13
2022-08-28T03:23:03.833Z,100102.44
2022-08-28T03:25:31.401Z,100099.81
2022-08-28T03:27:58.940Z,100103.63
2022-08-28T03:30:27.168Z,100099.66
2022-08-28T03:32:54.873Z,100100.03
2022-08-28T03:35:22.456Z,100101.56
2022-08-28T03:37:51.666Z,100098.47
2022-08-28T03:40:19.772Z,100096.91
2022-08-28T03:42:53.073Z,100094.72
2022-08-28T03:45:21.945Z,100091.41
2022-08-28T03:47:49.613Z,100094.63
2022-08-28T03:50:19.733Z,100097.88
2022-08-28T03:52:47.661Z,100102.78
2022-08-28T03:55:19.572Z,100097.03
2022-08-28T03:57:47.169Z,100096.13
2022-08-28T04:00:16.308Z,100102.88
2022-08-28T04:02:46.252Z,100105.47
2022-08-28T04:05:14.269Z,100104.34
2022-08-28T04:07:41.834Z,100111.84
2022-08-28T04:10:10.161Z,100109.88
2022-08-28T04:12:39.156Z,100115.31
2022-08-28T04:15:08.484Z,100108.53
2022-08-28T04:17:38.448Z,100109.94
2022-08-28T04:20:07.171Z,100102.84
2022-08-28T04:22:35.130Z,100102.94
2022-08-28T04:25:02.805Z,100108.22
2022-08-28T04:27:30.351Z,100110.09
2022-08-28T04:29:59.337Z,100115.75
2022-08-28T04:32:27.147Z,100110.22
2022-08-28T04:34:54.713Z,100115.16
2022-08-28T04:37:22.814Z,100118.75
2022-08-28T04:39:55.876Z,100111.56
2022-08-28T04:42:23.507Z,100122.13
2022-08-28T04:44:51.238Z,100112.53
2022-08-28T04:47:23.242Z,100124.13
2022-08-28T04:49:50.886Z,100123.41
2022-08-28T04:52:18.541Z,100121.38
2022-08-28T04:54:46.140Z,100120.50
2022-08-28T04:57:13.669Z,100124.50
2022-08-28T04:59:41.938Z,100131.22
2022-08-28T05:02:09.596Z,100131.16
2022-08-28T05:04:38.550Z,100135.47
2022-08-28T05:07:06.281Z,100132.03
2022-08-28T05:09:34.851Z,100145.06
2022-08-28T05:12:04.508Z,100142.06
2022-08-28T05:14:32.674Z,100146.13
2022-08-28T05:17:00.277Z,100143.00
2022-08-28T05:19:28.930Z,100143.88
2022-08-28T05:21:57.866Z,100156.00
2022-08-28T05:24:25.431Z,100156.50
2022-08-28T05:26:53.001Z,100156.88
2022-08-28T05:29:20.917Z,100161.97
2022-08-28T05:31:51.105Z,100155.81
2022-08-28T05:34:18.714Z,100159.44
2022-08-28T05:36:46.271Z,100163.81
2022-08-28T05:39:15.549Z,100173.13
2022-08-28T05:41:45.591Z,100172.16
2022-08-28T05:44:15.062Z,100174.34
2022-08-28T05:46:46.765Z,100173.59
2022-08-28T05:49:14.653Z,100172.50
2022-08-28T05:51:43.829Z,100179.38
2022-08-28T05:54:12.229Z,100167.53
2022-08-28T05:56:42.033Z,100174.31
2022-08-28T05:59:11.351Z,100186.97
2022-08-28T06:01:40.892Z,100176.94
2022-08-28T06:04:10.568Z,100181.50
2022-08-28T06:06:41.048Z,100184.00
2022-08-28T06:09:10.951Z,100185.75
2022-08-28T06:11:42.180Z,100183.34
2022-08-28T06:14:18.056Z,100184.75
2022-08-28T06:16:48.215Z,100185.66
2022-08-28T06:19:17.477Z,100200.50
2022-08-28T06:21:46.733Z,100196.25
2022-08-28T06:24:14.863Z,100191.31
2022-08-28T06:26:42.743Z,100197.13
2022-08-28T06:29:13.342Z,100189.41
2022-08-28T06:31:42.448Z,100200.28
2022-08-28T06:34:10.856Z,100196.56
2022-08-28T06:36:41.618Z,100198.75
2022-08-28T06:39:11.349Z,100201.56
2022-08-28T06:41:42.820Z,100200.28
2022-08-28T06:44:12.387Z,100207.50
2022-08-28T06:46:42.579Z,100211.91
2022-08-28T06:49:10.427Z,100212.69
2022-08-28T06:51:38.337Z,100210.59
2022-08-28T06:54:06.747Z,100212.06
2022-08-28T06:56:34.716Z,100216.09
2022-08-28T06:59:03.227Z,100211.06
2022-08-28T07:01:32.976Z,100218.22
2022-08-28T07:04:04.379Z,100218.06
2022-08-28T07:06:34.243Z,100215.72
2022-08-28T07:09:02.263Z,100215.09
2022-08-28T07:11:32.309Z,100210.13
2022-08-28T07:14:00.488Z,100216.66
2022-08-28T07:16:29.838Z,100218.13
2022-08-28T07:18:58.055Z,100211.38
2022-08-28T07:21:27.379Z,100215.94
2022-08-28T07:23:56.161Z,100219.94
2022-08-28T07:26:26.109Z,100221.88
2022-08-28T07:29:09.357Z,100221.88
2022-08-28T07:31:40.640Z,100219.53
2022-08-28T07:34:09.420Z,100212.78
2022-08-28T07:36:39.266Z,100212.06
2022-08-28T07:39:08.441Z,100210.31
2022-08-28T07:41:39.116Z,100219.66
2022-08-28T07:44:25.076Z,100222.84
2022-08-28T07:46:54.647Z,100225.53
2022-08-28T07:49:22.686Z,100235.25
2022-08-28T07:51:53.845Z,100228.63
2022-08-28T07:54:22.516Z,100237.06
2022-08-28T07:56:50.127Z,100243.47
2022-08-28T07:59:19.415Z,100242.31
2022-08-28T08:01:50.542Z,100236.41
2022-08-28T08:04:20.249Z,100241.28
2022-08-28T08:06:48.198Z,100243.19
2022-08-28T08:09:19.625Z,100243.28
2022-08-28T08:11:49.162Z,100248.44
2022-08-28T08:14:18.077Z,100255.41
2022-08-28T08:16:47.339Z,100258.84
2022-08-28T08:19:16.315Z,100251.91
2022-08-28T08:21:45.637Z,100252.13
2022-08-28T08:24:17.964Z,100251.00
2022-08-28T08:26:58.837Z,100258.88
2022-08-28T08:29:29.005Z,100247.13
2022-08-28T08:31:58.011Z,100250.97
2022-08-28T08:34:25.834Z,100250.13
2022-08-28T08:36:54.123Z,100249.69
2022-08-28T08:39:21.787Z,100259.78
2022-08-28T08:41:54.625Z,100249.75
2022-08-28T08:44:33.364Z,100256.59
2022-08-28T08:47:14.152Z,100256.91
2022-08-28T08:49:48.544Z,100253.31
2022-08-28T08:52:32.148Z,100250.66
2022-08-28T08:55:18.108Z,100265.97
2022-08-28T08:57:49.623Z,100259.03
2022-08-28T09:00:18.908Z,100257.97
2022-08-28T09:02:54.783Z,100265.38
2022-08-28T09:05:27.428Z,100263.81
2022-08-28T09:07:58.198Z,100262.41
2022-08-28T09:10:29.673Z,100259.09
2022-08-28T09:13:04.857Z,100261.69
2022-08-28T09:15:35.682Z,100255.28
2022-08-28T09:18:11.654Z,100257.16
2022-08-28T09:20:39.454Z,100259.78
2022-08-28T09:23:12.415Z,100266.81
2022-08-28T09:25:51.564Z,100260.09
2022-08-28T09:28:23.801Z,100265.97
2022-08-28T09:30:59.001Z,100272.44
2022-08-28T09:33:37.757Z,100264.22
2022-08-28T09:36:29.853Z,100262.22
2022-08-28T09:39:07.258Z,100261.13
2022-08-28T09:41:56.508Z,100270.84
2022-08-28T09:44:25.786Z,100262.13
2022-08-28T09:46:53.506Z,100263.41
2022-08-28T09:49:27.698Z,100268.53
2022-08-28T09:51:56.190Z,100275.19
2022-08-28T09:54:31.060Z,100263.22
2022-08-28T09:56:58.821Z,100263.69
2022-08-28T09:59:29.849Z,100271.84
2022-08-28T10:02:16.439Z,100268.69
2022-08-28T10:04:58.791Z,100266.94
2022-08-28T10:07:34.767Z,100259.41
2022-08-28T10:10:17.089Z,100263.19
2022-08-28T10:12:58.322Z,100260.59
2022-08-28T10:15:33.744Z,100267.38
2022-08-28T10:18:20.958Z,100269.38
2022-08-28T10:20:58.794Z,100265.81
2022-08-28T10:23:36.381Z,100265.53
2022-08-28T10:26:21.134Z,100267.38
2022-08-28T10:28:59.542Z,100259.69
2022-08-28T10:31:37.241Z,100260.66
2022-08-28T10:34:17.690Z,100256.53
2022-08-28T10:36:52.115Z,100251.31
2022-08-28T10:39:35.296Z,100253.25
2022-08-28T10:42:06.028Z,100255.59
2022-08-28T10:44:45.029Z,100253.44
2022-08-28T10:47:15.777Z,100254.69
2022-08-28T10:49:48.226Z,100259.53
2022-08-28T10:52:20.846Z,100263.69
2022-08-28T10:54:54.069Z,100264.97
2022-08-28T10:57:37.293Z,100262.97
2022-08-28T11:00:11.848Z,100266.06
2022-08-28T11:02:43.552Z,100252.78
2022-08-28T11:05:11.700Z,100253.03
2022-08-28T11:07:45.569Z,100255.28
2022-08-28T11:10:23.462Z,100246.31
2022-08-28T11:12:53.123Z,100246.81
2022-08-28T11:15:43.110Z,100250.31
2022-08-28T11:18:39.623Z,100255.03
2022-08-28T11:21:14.849Z,100251.25
2022-08-28T11:23:48.746Z,100254.22
2022-08-28T11:26:30.578Z,100255.03
2022-08-28T11:28:59.989Z,100252.34
2022-08-28T11:31:40.870Z,100261.50
2022-08-28T11:34:48.661Z,100257.09
2022-08-28T11:37:40.404Z,100251.44
2022-08-28T11:40:18.224Z,100253.00
2022-08-28T11:42:48.728Z,100250.94
2022-08-28T11:45:21.865Z,100247.75
2022-08-28T11:47:56.082Z,100245.75
2022-08-28T11:50:28.909Z,100247.13
2022-08-28T11:53:20.410Z,100265.13
2022-08-28T11:56:05.090Z,100262.00
2022-08-28T11:58:42.457Z,100260.16
2022-08-28T12:01:14.114Z,100248.47
2022-08-28T12:03:45.901Z,100246.19
2022-08-28T12:06:14.853Z,100244.09
2022-08-28T12:09:12.715Z,100255.41
2022-08-28T12:12:03.969Z,100243.63
2022-08-28T12:15:09.393Z,100243.63
2022-08-28T12:17:57.108Z,100243.75
2022-08-28T12:20:45.159Z,100233.38
2022-08-28T12:23:39.486Z,100234.81
2022-08-28T12:26:11.161Z,100240.34
2022-08-28T12:28:45.727Z,100231.50
2022-08-28T12:31:43.005Z,100238.94
2022-08-28T12:34:18.141Z,100235.50
2022-08-28T12:36:48.965Z,100242.09
2022-08-28T12:39:20.909Z,100232.16
2022-08-28T12:41:48.549Z,100237.09
2022-08-28T12:44:16.395Z,100237.22
2022-08-28T12:46:44.817Z,100233.47
2022-08-28T12:49:31.986Z,100221.84
2022-08-28T12:52:16.716Z,100227.25
2022-08-28T12:54:47.828Z,100228.81
2022-08-28T12:57:17.470Z,100226.09
2022-08-28T12:59:46.966Z,100229.13
2022-08-28T13:02:25.716Z,100227.41
2022-08-28T13:04:56.682Z,100221.31
2022-08-28T13:07:30.158Z,100224.31
2022-08-28T13:10:03.370Z,100222.06
2022-08-28T13:12:54.546Z,100222.22
2022-08-28T13:15:46.302Z,100221.75
2022-08-28T13:18:35.817Z,100213.53
2022-08-28T13:21:33.850Z,100211.47
2022-08-28T13:24:40.855Z,100215.06
2022-08-28T13:27:19.821Z,100226.91
2022-08-28T13:30:01.173Z,100203.31
2022-08-28T13:32:30.247Z,100205.44
2022-08-28T13:35:13.492Z,100209.34
2022-08-28T13:37:43.580Z,100201.16
2022-08-28T13:40:30.220Z,100212.19
2022-08-28T13:43:06.803Z,100209.47
2022-08-28T13:45:42.616Z,100206.34
2022-08-28T13:48:12.167Z,100206.50
2022-08-28T13:50:42.226Z,100203.25
2022-08-28T13:53:13.138Z,100194.16
2022-08-28T13:55:40.854Z,100186.16
2022-08-28T13:58:10.630Z,100196.56
2022-08-28T14:00:42.000Z,100194.72
2022-08-28T14:03:26.990Z,100194.91
2022-08-28T14:05:54.651Z,100197.31
2022-08-28T14:08:22.677Z,100192.00
2022-08-28T14:10:50.482Z,100182.91
2022-08-28T14:13:19.786Z,100185.66
2022-08-28T14:15:47.658Z,100189.28
2022-08-28T14:18:15.325Z,100182.13
2022-08-28T14:20:42.870Z,100176.19
2022-08-28T14:23:11.462Z,100179.97
2022-08-28T14:25:42.280Z,100177.06
2022-08-28T14:28:09.869Z,100172.94
2022-08-28T14:30:43.756Z,100174.94
2022-08-28T14:33:11.375Z,100165.59
2022-08-28T14:35:40.755Z,100182.63
2022-08-28T14:38:11.461Z,100170.72
2022-08-28T14:40:40.325Z,100158.63
2022-08-28T14:43:09.701Z,100158.44
2022-08-28T14:45:45.017Z,100162.38
2022-08-28T14:48:12.855Z,100167.31
2022-08-28T14:50:41.804Z,100165.06
2022-08-28T14:53:09.996Z,100166.56
2022-08-28T14:55:41.707Z,100166.75
2022-08-28T14:58:09.266Z,100167.66
2022-08-28T15:00:40.525Z,100168.09
2022-08-28T15:03:10.320Z,100167.66
2022-08-28T15:05:37.903Z,100173.81
2022-08-28T15:08:08.279Z,100169.84
2022-08-28T15:10:37.969Z,100167.50
2022-08-28T15:13:05.586Z,100164.53
2022-08-28T15:15:35.425Z,100159.78
2022-08-28T15:18:02.988Z,100173.09
2022-08-28T15:20:32.647Z,100175.13
2022-08-28T15:23:00.217Z,100178.69
2022-08-28T15:25:28.027Z,100161.78
2022-08-28T15:27:55.851Z,100161.84
2022-08-28T15:30:23.402Z,100170.84
2022-08-28T15:32:50.984Z,100172.66
2022-08-28T15:35:18.582Z,100166.47
2022-08-28T15:37:47.703Z,100168.56
2022-08-28T15:40:32.699Z,100164.47
2022-08-28T15:43:00.291Z,100162.56
2022-08-28T15:45:28.077Z,100171.63
2022-08-28T15:47:55.725Z,100165.31
2022-08-28T15:50:23.474Z,100155.91
2022-08-28T15:52:54.633Z,100167.19
2022-08-28T15:55:22.200Z,100159.13
2022-08-28T15:57:49.952Z,100160.06
2022-08-28T16:00:18.064Z,100163.41
2022-08-28T16:02:45.628Z,100166.47
2022-08-28T16:05:13.357Z,100169.97
2022-08-28T16:07:40.923Z,100162.34
2022-08-28T16:10:13.321Z,100162.66
2022-08-28T16:12:41.111Z,100157.66
2022-08-28T16:15:10.342Z,100164.28
2022-08-28T16:17:38.793Z,100166.34
2022-08-28T16:20:12.901Z,100166.00
2022-08-28T16:22:40.864Z,100166.53
2022-08-28T16:25:10.903Z,100161.44
2022-08-28T16:27:38.443Z,100166.00
2022-08-28T16:30:15.838Z,100161.56
2022-08-28T16:32:46.620Z,100165.34
2022-08-28T16:35:14.954Z,100171.38
2022-08-28T16:37:43.040Z,100165.44
2022-08-28T16:40:13.197Z,100159.00
2022-08-28T16:42:51.441Z,100156.25
2022-08-28T16:45:19.768Z,100151.81
2022-08-28T16:47:47.363Z,100156.25
2022-08-28T16:50:15.593Z,100156.09
2022-08-28T16:52:43.321Z,100157.81
2022-08-28T16:55:13.544Z,100156.25
2022-08-28T16:57:41.134Z,100154.97
2022-08-28T17:00:12.438Z,100151.22
2022-08-28T17:02:41.376Z,100156.72
2022-08-28T17:05:10.074Z,100155.84
2022-08-28T17:07:39.625Z,100158.00
2022-08-28T17:10:09.307Z,100156.78
2022-08-28T17:12:38.302Z,100151.56
2022-08-28T17:15:07.277Z,100153.59
2022-08-28T17:17:35.511Z,100152.44
2022-08-28T17:20:04.862Z,100160.41
2022-08-28T17:22:31.960Z,100165.09
2022-08-28T17:25:01.294Z,100158.16
2022-08-28T17:27:29.864Z,100149.66
2022-08-28T17:29:58.864Z,100155.13
2022-08-28T17:32:28.810Z,100160.25
2022-08-28T17:34:56.409Z,100162.63
2022-08-28T17:37:24.803Z,100157.38
2022-08-28T17:39:53.398Z,100169.09
2022-08-28T17:42:21.539Z,100168.25
2022-08-28T17:44:49.079Z,100170.84
2022-08-28T17:47:18.317Z,100172.75
2022-08-28T17:49:53.728Z,100172.66
2022-08-28T17:52:21.294Z,100170.88
2022-08-28T17:54:48.881Z,100181.06
2022-08-28T17:57:16.669Z,100184.38
2022-08-28T17:59:44.345Z,100177.00
2022-08-28T18:02:16.431Z,100183.28
2022-08-28T18:04:45.688Z,100182.44
2022-08-28T18:07:13.369Z,100184.63
2022-08-28T18:09:40.961Z,100185.50
2022-08-28T18:12:12.288Z,100188.81
2022-08-28T18:14:40.614Z,100192.84
2022-08-28T18:17:09.242Z,100193.97
2022-08-28T18:19:37.043Z,100195.38
2022-08-28T18:22:09.018Z,100196.53
2022-08-28T18:24:36.816Z,100200.09
2022-08-28T18:27:05.237Z,100205.97
2022-08-28T18:29:32.809Z,100205.09
2022-08-28T18:32:01.669Z,100206.53
2022-08-28T18:34:31.537Z,100217.09
2022-08-28T18:36:59.401Z,100215.25
2022-08-28T18:39:29.689Z,100217.81
2022-08-28T18:41:58.265Z,100223.22
2022-08-28T18:44:26.056Z,100224.19
2022-08-28T18:46:53.809Z,100226.81
2022-08-28T18:49:21.419Z,100228.06
2022-08-28T18:51:48.990Z,100233.88
2022-08-28T18:54:20.103Z,100235.34
2022-08-28T18:56:50.323Z,100233.41
2022-08-28T18:59:18.743Z,100244.00
2022-08-28T19:01:46.507Z,100243.97
2022-08-28T19:04:14.311Z,100241.53
2022-08-28T19:06:42.499Z,100243.06
2022-08-28T19:09:19.383Z,100252.63
2022-08-28T19:11:49.805Z,100254.00
2022-08-28T19:14:17.532Z,100258.00
2022-08-28T19:16:45.267Z,100256.69
2022-08-28T19:19:12.861Z,100263.81
2022-08-28T19:21:40.551Z,100261.88
2022-08-28T19:24:11.431Z,100270.56
2022-08-28T19:26:39.402Z,100273.97
2022-08-28T19:29:08.869Z,100277.22
2022-08-28T19:31:38.612Z,100282.63
2022-08-28T19:34:11.217Z,100282.97
2022-08-28T19:36:39.957Z,100277.19
2022-08-28T19:39:07.793Z,100278.88
2022-08-28T19:41:36.789Z,100282.06
2022-08-28T19:44:05.549Z,100287.28
2022-08-28T19:46:36.519Z,100287.91
2022-08-28T19:49:05.729Z,100293.50
2022-08-28T19:51:33.944Z,100296.13
2022-08-28T19:54:03.528Z,100302.59
2022-08-28T19:56:32.980Z,100299.91
2022-08-28T19:59:02.778Z,100298.44
2022-08-28T20:01:37.624Z,100301.13
2022-08-28T20:04:08.517Z,100307.38
2022-08-28T20:06:37.277Z,100299.31
2022-08-28T20:09:10.689Z,100297.38
2022-08-28T20:11:40.197Z,100306.41
2022-08-28T20:14:07.875Z,100312.75
2022-08-28T20:16:38.354Z,100318.81
2022-08-28T20:19:10.321Z,100320.63
2022-08-28T20:21:40.372Z,100313.22
2022-08-28T20:24:11.345Z,100319.78
2022-08-28T20:26:38.939Z,100319.34
2022-08-28T20:29:08.950Z,100319.47
2022-08-28T20:31:40.303Z,100325.44
2022-08-28T20:34:10.155Z,100332.47
2022-08-28T20:36:38.198Z,100336.16
2022-08-28T20:39:09.118Z,100330.84
2022-08-28T20:41:37.935Z,100337.59
2022-08-28T20:44:07.672Z,100341.69
2022-08-28T20:46:40.080Z,100342.16
2022-08-28T20:49:12.203Z,100345.25
2022-08-28T20:51:55.137Z,100348.22
2022-08-28T20:54:25.846Z,100356.56
2022-08-28T20:56:54.059Z,100350.75
2022-08-28T20:59:22.429Z,100351.16
2022-08-28T21:01:50.965Z,100350.66
2022-08-28T21:04:20.628Z,100344.25
2022-08-28T21:06:48.647Z,100352.38
2022-08-28T21:09:17.482Z,100345.72
2022-08-28T21:11:45.477Z,100349.53
2022-08-28T21:14:13.825Z,100363.19
2022-08-28T21:16:41.922Z,100360.97
2022-08-28T21:19:16.110Z,100364.16
2022-08-28T21:21:46.395Z,100367.72
2022-08-28T21:24:16.041Z,100375.47
2022-08-28T21:26:44.635Z,100372.22
2022-08-28T21:29:13.838Z,100374.00
2022-08-28T21:31:42.877Z,100378.78
2022-08-28T21:34:11.078Z,100372.75
2022-08-28T21:36:39.491Z,100370.44
2022-08-28T21:39:08.435Z,100368.31
2022-08-28T21:41:36.625Z,100378.28
2022-08-28T21:44:05.034Z,100372.84
2022-08-28T21:46:33.070Z,100374.97
2022-08-28T21:49:01.367Z,100375.78
2022-08-28T21:51:28.929Z,100384.03
2022-08-28T21:53:57.289Z,100386.22
2022-08-28T21:56:28.834Z,100391.97
2022-08-28T21:58:57.542Z,100387.81
2022-08-28T22:01:26.612Z,100391.00
2022-08-28T22:03:54.875Z,100387.81
2022-08-28T22:06:23.996Z,100392.41
2022-08-28T22:08:52.649Z,100390.69
2022-08-28T22:11:25.228Z,100397.81
2022-08-28T22:13:54.763Z,100398.25
2022-08-28T22:16:23.201Z,100398.34
2022-08-28T22:18:51.469Z,100394.28
2022-08-28T22:21:39.790Z,100387.28
2022-08-28T22:24:08.716Z,100388.25
2022-08-28T22:26:36.552Z,100394.41
2022-08-28T22:29:07.829Z,100396.66
2022-08-28T22:31:36.761Z,100398.72
2022-08-28T22:34:09.936Z,100397.00
2022-08-28T22:36:38.378Z,100396.16
2022-08-28T22:39:06.297Z,100392.78
2022-08-28T22:41:37.164Z,100400.44
2022-08-28T22:44:07.116Z,100399.47
2022-08-28T22:46:35.839Z,100394.66
2022-08-28T22:49:03.537Z,100394.66
2022-08-28T22:51:31.154Z,100391.19
2022-08-28T22:53:58.705Z,100393.00
2022-08-28T22:56:26.450Z,100390.41
2022-08-28T22:58:53.989Z,100385.31
2022-08-28T23:01:25.936Z,100374.47
2022-08-28T23:03:53.619Z,100381.97
2022-08-28T23:06:21.434Z,100383.19
2022-08-28T23:08:49.028Z,100379.16
2022-08-28T23:11:16.918Z,100376.81
2022-08-28T23:13:44.504Z,100380.44
2022-08-28T23:16:12.948Z,100383.72
2022-08-28T23:19:06.662Z,100384.59
2022-08-28T23:21:29.697Z,100374.81
2022-08-28T23:23:58.190Z,100378.13
2022-08-28T23:26:26.023Z,100372.75
2022-08-28T23:28:53.988Z,100376.78
2022-08-28T23:31:21.740Z,100372.53
2022-08-28T23:33:50.732Z,100370.66
2022-08-28T23:36:19.427Z,100368.59
2022-08-28T23:38:46.989Z,100369.28
2022-08-28T23:41:14.554Z,100367.06
2022-08-28T23:43:42.344Z,100360.25
2022-08-28T23:46:13.538Z,100356.25
2022-08-28T23:48:41.388Z,100356.31
2022-08-28T23:51:11.047Z,100358.22
2022-08-28T23:53:39.829Z,100357.91
2022-08-28T23:56:07.695Z,100348.88
2022-08-28T23:58:35.832Z,100357.56
